createdAt,value
2019-02-26T00:00:05.136Z,995.37
2019-02-26T00:01:05.387Z,995.45
2019-02-26T00:02:05.499Z,995.34
2019-02-26T00:03:05.154Z,995.37
2019-02-26T00:04:05.174Z,995.45
2019-02-26T00:05:04.723Z,995.54
2019-02-26T00:06:05.134Z,995.64
2019-02-26T00:07:05.488Z,995.48
2019-02-26T00:08:04.724Z,995.40
2019-02-26T00:09:05.160Z,995.42
2019-02-26T00:10:07.464Z,995.45
2019-02-26T00:11:10.290Z,995.45
2019-02-26T00:12:05.105Z,995.54
2019-02-26T00:13:04.490Z,995.64
2019-02-26T00:14:05.285Z,995.40
2019-02-26T00:15:04.854Z,995.40
2019-02-26T00:16:10.433Z,995.40
2019-02-26T00:17:10.630Z,995.54
2019-02-26T00:18:11.369Z,995.40
2019-02-26T00:19:09.286Z,995.51
2019-02-26T00:20:07.864Z,995.37
2019-02-26T00:21:05.368Z,995.37
2019-02-26T00:22:07.615Z,995.48
2019-02-26T00:23:04.774Z,995.54
2019-02-26T00:24:07.237Z,995.37
2019-02-26T00:25:10.229Z,995.45
2019-02-26T00:26:04.881Z,995.43
2019-02-26T00:27:07.615Z,995.34
2019-02-26T00:28:05.006Z,995.45
2019-02-26T00:29:10.391Z,995.51
2019-02-26T00:30:04.684Z,995.51
2019-02-26T00:31:06.406Z,995.43
2019-02-26T00:32:06.986Z,995.54
2019-02-26T00:33:05.681Z,995.45
2019-02-26T00:34:10.639Z,995.34
2019-02-26T00:35:05.221Z,995.43
2019-02-26T00:36:08.901Z,995.43
2019-02-26T00:37:08.432Z,995.51
2019-02-26T00:38:05.247Z,995.40
2019-02-26T00:39:07.229Z,995.40
2019-02-26T00:40:05.120Z,995.43
2019-02-26T00:41:06.428Z,995.45
2019-02-26T00:42:05.711Z,995.45
2019-02-26T00:43:06.970Z,995.43
2019-02-26T00:44:06.839Z,995.43
2019-02-26T00:45:07.959Z,995.54
2019-02-26T00:46:08.423Z,995.43
2019-02-26T00:47:08.842Z,995.43
2019-02-26T00:48:04.884Z,995.57
2019-02-26T00:49:10.335Z,995.43
2019-02-26T00:50:07.292Z,995.64
2019-02-26T00:51:05.150Z,995.51
2019-02-26T00:52:09.217Z,995.40
2019-02-26T00:53:04.719Z,995.48
2019-02-26T00:54:05.106Z,995.43
2019-02-26T00:55:09.299Z,995.40
2019-02-26T00:56:07.932Z,995.40
2019-02-26T00:57:09.381Z,995.40
2019-02-26T00:58:08.392Z,995.46
2019-02-26T00:59:04.690Z,995.46
2019-02-26T01:00:07.655Z,995.43
2019-02-26T01:01:12.413Z,995.34
2019-02-26T01:02:04.606Z,995.32
2019-02-26T01:03:09.045Z,995.43
2019-02-26T01:04:05.397Z,995.29
2019-02-26T01:05:08.556Z,995.18
2019-02-26T01:06:07.974Z,995.18
2019-02-26T01:07:07.578Z,995.29
2019-02-26T01:08:10.486Z,995.15
2019-02-26T01:09:11.215Z,995.15
2019-02-26T01:10:04.990Z,995.07
2019-02-26T01:11:08.496Z,995.09
2019-02-26T01:12:09.086Z,995.15
2019-02-26T01:13:07.525Z,995.04
2019-02-26T01:14:05.420Z,994.93
2019-02-26T01:15:07.615Z,995.15
2019-02-26T01:16:05.082Z,995.09
2019-02-26T01:17:05.307Z,995.04
2019-02-26T01:18:05.965Z,994.98
2019-02-26T01:19:05.287Z,995.04
2019-02-26T01:20:06.126Z,995.04
2019-02-26T01:21:04.744Z,995.18
2019-02-26T01:22:05.412Z,995.07
2019-02-26T01:23:05.212Z,995.01
2019-02-26T01:24:08.559Z,994.98
2019-02-26T01:25:05.234Z,995.12
2019-02-26T01:26:05.315Z,994.93
2019-02-26T01:27:05.427Z,995.04
2019-02-26T01:28:05.082Z,995.07
2019-02-26T01:29:10.563Z,994.98
2019-02-26T01:30:04.911Z,995.12
2019-02-26T01:31:07.322Z,995.07
2019-02-26T01:32:12.986Z,995.10
2019-02-26T01:33:09.661Z,995.10
2019-02-26T01:34:05.422Z,995.04
2019-02-26T01:35:09.026Z,995.07
2019-02-26T01:36:05.297Z,994.93
2019-02-26T01:37:07.693Z,995.07
2019-02-26T01:38:04.475Z,995.04
2019-02-26T01:39:09.403Z,994.93
2019-02-26T01:40:13.072Z,994.93
2019-02-26T01:41:05.282Z,994.96
2019-02-26T01:42:04.696Z,995.10
2019-02-26T01:43:06.018Z,994.96
2019-02-26T01:44:04.611Z,995.04
2019-02-26T01:45:04.712Z,994.93
2019-02-26T01:46:07.160Z,995.01
2019-02-26T01:47:05.194Z,994.93
2019-02-26T01:48:08.808Z,994.93
2019-02-26T01:49:09.911Z,994.82
2019-02-26T01:50:08.821Z,994.76
2019-02-26T01:51:05.250Z,994.85
2019-02-26T01:52:08.314Z,994.76
2019-02-26T01:53:05.202Z,994.87
2019-02-26T01:54:09.488Z,994.82
2019-02-26T01:55:04.748Z,994.76
2019-02-26T01:56:05.589Z,994.71
2019-02-26T01:57:09.248Z,994.71
2019-02-26T01:58:04.964Z,994.73
2019-02-26T01:59:05.240Z,994.63
2019-02-26T02:00:07.250Z,994.68
2019-02-26T02:01:04.929Z,994.76
2019-02-26T02:02:05.125Z,994.71
2019-02-26T02:03:04.869Z,994.66
2019-02-26T02:04:05.188Z,994.55
2019-02-26T02:05:07.423Z,994.58
2019-02-26T02:06:08.923Z,994.71
2019-02-26T02:07:06.402Z,994.76
2019-02-26T02:08:09.012Z,994.76
2019-02-26T02:09:09.256Z,994.63
2019-02-26T02:10:04.746Z,994.71
2019-02-26T02:11:09.194Z,994.73
2019-02-26T02:12:08.759Z,994.76
2019-02-26T02:13:09.236Z,994.85
2019-02-26T02:14:08.131Z,994.79
2019-02-26T02:15:05.349Z,994.85
2019-02-26T02:16:08.816Z,994.71
2019-02-26T02:17:08.423Z,994.82
2019-02-26T02:18:06.594Z,994.73
2019-02-26T02:19:05.235Z,994.73
2019-02-26T02:20:10.379Z,994.73
2019-02-26T02:21:05.498Z,994.63
2019-02-26T02:22:04.861Z,994.71
2019-02-26T02:23:07.459Z,994.61
2019-02-26T02:24:11.066Z,994.63
2019-02-26T02:25:05.465Z,994.68
2019-02-26T02:26:08.421Z,994.66
2019-02-26T02:27:05.045Z,994.68
2019-02-26T02:28:05.298Z,994.55
2019-02-26T02:29:14.751Z,994.76
2019-02-26T02:30:04.856Z,994.74
2019-02-26T02:31:04.959Z,994.61
2019-02-26T02:32:07.656Z,994.68
2019-02-26T02:33:04.685Z,994.66
2019-02-26T02:34:05.133Z,994.58
2019-02-26T02:35:09.513Z,994.55
2019-02-26T02:36:04.728Z,994.61
2019-02-26T02:37:05.366Z,994.49
2019-02-26T02:38:05.351Z,994.52
2019-02-26T02:39:13.460Z,994.63
2019-02-26T02:40:05.159Z,994.63
2019-02-26T02:41:04.864Z,994.52
2019-02-26T02:42:05.061Z,994.63
2019-02-26T02:43:09.942Z,994.61
2019-02-26T02:44:04.890Z,994.44
2019-02-26T02:45:07.688Z,994.41
2019-02-26T02:46:04.918Z,994.52
2019-02-26T02:47:10.785Z,994.41
2019-02-26T02:48:09.043Z,994.44
2019-02-26T02:49:09.402Z,994.68
2019-02-26T02:50:09.937Z,994.58
2019-02-26T02:51:08.387Z,994.61
2019-02-26T02:52:09.087Z,994.55
2019-02-26T02:53:05.222Z,994.68
2019-02-26T02:54:05.416Z,994.44
2019-02-26T02:55:09.414Z,994.36
2019-02-26T02:56:10.403Z,994.44
2019-02-26T02:57:07.876Z,994.44
2019-02-26T02:58:04.605Z,994.63
2019-02-26T02:59:08.824Z,994.63
2019-02-26T03:00:08.711Z,994.44
2019-02-26T03:01:05.355Z,994.47
2019-02-26T03:02:05.437Z,994.44
2019-02-26T03:03:05.015Z,994.38
2019-02-26T03:04:05.227Z,994.41
2019-02-26T03:05:04.473Z,994.55
2019-02-26T03:06:07.766Z,994.47
2019-02-26T03:07:04.871Z,994.49
2019-02-26T03:08:04.875Z,994.55
2019-02-26T03:09:09.137Z,994.55
2019-02-26T03:10:09.493Z,994.49
2019-02-26T03:11:04.788Z,994.44
2019-02-26T03:12:05.435Z,994.47
2019-02-26T03:13:04.679Z,994.58
2019-02-26T03:14:10.781Z,994.47
2019-02-26T03:15:09.930Z,994.38
2019-02-26T03:16:04.690Z,994.41
2019-02-26T03:17:08.994Z,994.36
2019-02-26T03:18:11.425Z,994.41
2019-02-26T03:19:09.168Z,994.52
2019-02-26T03:20:08.207Z,994.47
2019-02-26T03:21:05.246Z,994.47
2019-02-26T03:22:07.107Z,994.41
2019-02-26T03:23:11.429Z,994.55
2019-02-26T03:24:10.039Z,994.61
2019-02-26T03:25:05.262Z,994.55
2019-02-26T03:26:05.230Z,994.33
2019-02-26T03:27:04.874Z,994.36
2019-02-26T03:28:05.288Z,994.39
2019-02-26T03:29:04.650Z,994.58
2019-02-26T03:30:04.930Z,994.41
2019-02-26T03:31:05.152Z,994.44
2019-02-26T03:32:05.556Z,994.55
2019-02-26T03:33:05.331Z,994.55
2019-02-26T03:34:14.435Z,994.64
2019-02-26T03:35:10.113Z,994.58
2019-02-26T03:36:08.590Z,994.44
2019-02-26T03:37:10.454Z,994.50
2019-02-26T03:38:04.478Z,994.41
2019-02-26T03:39:04.781Z,994.47
2019-02-26T03:40:08.874Z,994.41
2019-02-26T03:41:05.277Z,994.58
2019-02-26T03:42:04.640Z,994.66
2019-02-26T03:43:07.622Z,994.41
2019-02-26T03:44:09.036Z,994.33
2019-02-26T03:45:04.473Z,994.39
2019-02-26T03:46:04.726Z,994.50
2019-02-26T03:47:05.216Z,994.39
2019-02-26T03:48:04.493Z,994.47
2019-02-26T03:49:05.196Z,994.44
2019-02-26T03:50:09.659Z,994.55
2019-02-26T03:51:05.231Z,994.61
2019-02-26T03:52:04.612Z,994.44
2019-02-26T03:53:08.960Z,994.39
2019-02-26T03:54:04.863Z,994.47
2019-02-26T03:55:09.171Z,994.44
2019-02-26T03:56:11.707Z,994.47
2019-02-26T03:57:05.093Z,994.47
2019-02-26T03:58:05.038Z,994.30
2019-02-26T03:59:09.443Z,994.39
2019-02-26T04:00:10.895Z,994.39
2019-02-26T04:01:10.211Z,994.36
2019-02-26T04:02:04.652Z,994.36
2019-02-26T04:03:11.444Z,994.47
2019-02-26T04:04:07.722Z,994.33
2019-02-26T04:05:08.989Z,994.47
2019-02-26T04:06:10.062Z,994.36
2019-02-26T04:07:10.781Z,994.36
2019-02-26T04:08:05.498Z,994.50
2019-02-26T04:09:04.654Z,994.53
2019-02-26T04:10:04.597Z,994.41
2019-02-26T04:11:04.690Z,994.44
2019-02-26T04:12:07.460Z,994.47
2019-02-26T04:13:04.908Z,994.47
2019-02-26T04:14:05.074Z,994.36
2019-02-26T04:15:05.223Z,994.36
2019-02-26T04:16:05.083Z,994.36
2019-02-26T04:17:08.981Z,994.50
2019-02-26T04:18:04.705Z,994.39
2019-02-26T04:19:09.490Z,994.36
2019-02-26T04:20:06.580Z,994.39
2019-02-26T04:21:09.321Z,994.47
2019-02-26T04:22:05.222Z,994.39
2019-02-26T04:23:05.500Z,994.47
2019-02-26T04:24:08.567Z,994.44
2019-02-26T04:25:09.215Z,994.50
2019-02-26T04:26:05.086Z,994.47
2019-02-26T04:27:05.280Z,994.47
2019-02-26T04:28:07.974Z,994.58
2019-02-26T04:29:10.312Z,994.44
2019-02-26T04:30:08.185Z,994.61
2019-02-26T04:31:04.553Z,994.44
2019-02-26T04:32:05.282Z,994.39
2019-02-26T04:33:09.517Z,994.47
2019-02-26T04:34:08.736Z,994.55
2019-02-26T04:35:05.442Z,994.36
2019-02-26T04:36:04.891Z,994.25
2019-02-26T04:37:10.231Z,994.33
2019-02-26T04:38:06.709Z,994.33
2019-02-26T04:39:10.522Z,994.25
2019-02-26T04:40:10.793Z,994.27
2019-02-26T04:41:12.449Z,994.33
2019-02-26T04:42:08.555Z,994.27
2019-02-26T04:43:09.738Z,994.19
2019-02-26T04:44:06.636Z,994.27
2019-02-26T04:45:09.317Z,994.25
2019-02-26T04:46:10.722Z,994.16
2019-02-26T04:47:06.338Z,994.22
2019-02-26T04:48:04.961Z,994.27
2019-02-26T04:49:09.651Z,994.22
2019-02-26T04:50:08.924Z,994.22
2019-02-26T04:51:04.788Z,994.22
2019-02-26T04:52:10.861Z,994.19
2019-02-26T04:53:11.023Z,994.36
2019-02-26T04:54:05.156Z,994.33
2019-02-26T04:55:04.738Z,994.25
2019-02-26T04:56:12.101Z,994.19
2019-02-26T04:57:04.888Z,994.08
2019-02-26T04:58:05.195Z,994.30
2019-02-26T04:59:09.368Z,994.30
2019-02-26T05:00:10.256Z,994.30
2019-02-26T05:01:09.884Z,994.22
2019-02-26T05:02:04.967Z,994.22
2019-02-26T05:03:11.128Z,994.36
2019-02-26T05:04:04.537Z,994.16
2019-02-26T05:05:04.677Z,994.14
2019-02-26T05:06:10.493Z,994.14
2019-02-26T05:07:10.353Z,994.16
2019-02-26T05:08:10.327Z,993.94
2019-02-26T05:09:08.070Z,994.08
2019-02-26T05:10:05.292Z,994.14
2019-02-26T05:11:05.360Z,994.14
2019-02-26T05:12:05.079Z,994.08
2019-02-26T05:13:09.626Z,994.02
2019-02-26T05:14:09.082Z,994.08
2019-02-26T05:15:05.186Z,994.08
2019-02-26T05:16:04.744Z,994.14
2019-02-26T05:17:04.542Z,994.14
2019-02-26T05:18:05.237Z,994.05
2019-02-26T05:19:05.422Z,993.97
2019-02-26T05:20:09.335Z,994.00
2019-02-26T05:21:10.304Z,993.88
2019-02-26T05:22:07.374Z,993.88
2019-02-26T05:23:06.740Z,993.88
2019-02-26T05:24:04.638Z,993.91
2019-02-26T05:25:13.837Z,993.97
2019-02-26T05:26:08.212Z,993.94
2019-02-26T05:27:09.336Z,994.05
2019-02-26T05:28:11.533Z,994.02
2019-02-26T05:29:09.615Z,993.88
2019-02-26T05:30:06.858Z,993.80
2019-02-26T05:31:11.272Z,993.86
2019-02-26T05:32:09.297Z,994.02
2019-02-26T05:33:06.030Z,994.02
2019-02-26T05:34:04.561Z,993.97
2019-02-26T05:35:04.671Z,993.91
2019-02-26T05:36:09.230Z,994.11
2019-02-26T05:37:10.956Z,994.05
2019-02-26T05:38:09.596Z,994.14
2019-02-26T05:39:05.230Z,993.91
2019-02-26T05:40:09.372Z,994.05
2019-02-26T05:41:05.388Z,994.11
2019-02-26T05:42:06.690Z,994.00
2019-02-26T05:43:07.240Z,994.05
2019-02-26T05:44:10.614Z,993.97
2019-02-26T05:45:09.244Z,994.00
2019-02-26T05:46:05.235Z,994.08
2019-02-26T05:47:05.398Z,994.22
2019-02-26T05:48:04.585Z,994.16
2019-02-26T05:49:16.168Z,994.11
2019-02-26T05:50:13.374Z,994.00
2019-02-26T05:51:09.257Z,994.02
2019-02-26T05:52:07.532Z,994.08
2019-02-26T05:53:10.413Z,994.00
2019-02-26T05:54:11.394Z,993.94
2019-02-26T05:55:05.121Z,993.91
2019-02-26T05:56:05.489Z,994.00
2019-02-26T05:57:09.469Z,993.94
2019-02-26T05:58:04.867Z,994.02
2019-02-26T05:59:11.794Z,993.86
2019-02-26T06:00:04.864Z,994.00
2019-02-26T06:01:05.134Z,994.14
2019-02-26T06:02:04.994Z,994.11
2019-02-26T06:03:11.841Z,994.14
2019-02-26T06:04:09.134Z,993.91
2019-02-26T06:05:04.861Z,994.08
2019-02-26T06:06:04.923Z,994.05
2019-02-26T06:07:05.115Z,994.11
2019-02-26T06:08:04.853Z,994.08
2019-02-26T06:09:07.904Z,994.14
2019-02-26T06:10:04.627Z,994.08
2019-02-26T06:11:04.820Z,994.22
2019-02-26T06:12:05.130Z,994.14
2019-02-26T06:13:09.598Z,994.19
2019-02-26T06:14:10.294Z,994.11
2019-02-26T06:15:08.511Z,994.28
2019-02-26T06:16:07.856Z,994.16
2019-02-26T06:17:04.554Z,994.05
2019-02-26T06:18:04.908Z,994.19
2019-02-26T06:19:08.415Z,994.00
2019-02-26T06:20:10.766Z,993.97
2019-02-26T06:21:04.790Z,994.14
2019-02-26T06:22:05.121Z,994.00
2019-02-26T06:23:05.230Z,994.05
2019-02-26T06:24:04.834Z,994.19
2019-02-26T06:25:18.492Z,994.05
2019-02-26T06:26:13.928Z,994.11
2019-02-26T06:27:12.863Z,994.05
2019-02-26T06:28:12.574Z,994.22
2019-02-26T06:29:10.201Z,994.14
2019-02-26T06:30:12.145Z,994.17
2019-02-26T06:31:04.897Z,994.17
2019-02-26T06:32:07.770Z,994.08
2019-02-26T06:33:09.626Z,994.11
2019-02-26T06:34:09.235Z,994.08
2019-02-26T06:35:10.504Z,994.00
2019-02-26T06:36:06.853Z,994.17
2019-02-26T06:37:09.372Z,994.05
2019-02-26T06:38:09.184Z,994.05
2019-02-26T06:39:06.424Z,994.05
2019-02-26T06:40:07.432Z,994.16
2019-02-26T06:41:05.493Z,994.28
2019-02-26T06:42:08.078Z,994.16
2019-02-26T06:43:05.460Z,994.22
2019-02-26T06:44:04.720Z,994.14
2019-02-26T06:45:10.348Z,994.16
2019-02-26T06:46:11.572Z,994.05
2019-02-26T06:47:08.646Z,994.25
2019-02-26T06:48:04.905Z,994.19
2019-02-26T06:49:05.285Z,994.19
2019-02-26T06:50:10.192Z,994.25
2019-02-26T06:51:07.545Z,994.19
2019-02-26T06:52:08.328Z,994.27
2019-02-26T06:53:10.980Z,994.19
2019-02-26T06:54:05.175Z,994.30
2019-02-26T06:55:07.798Z,994.41
2019-02-26T06:56:04.716Z,994.24
2019-02-26T06:57:04.815Z,994.27
2019-02-26T06:58:05.368Z,994.29
2019-02-26T06:59:09.637Z,994.24
2019-02-26T07:00:04.648Z,994.32
2019-02-26T07:01:04.736Z,994.26
2019-02-26T07:02:04.917Z,994.32
2019-02-26T07:03:04.932Z,994.34
2019-02-26T07:04:05.109Z,994.31
2019-02-26T07:05:05.265Z,994.17
2019-02-26T07:06:05.288Z,994.17
2019-02-26T07:07:10.901Z,994.28
2019-02-26T07:08:10.064Z,994.26
2019-02-26T07:09:05.426Z,994.23
2019-02-26T07:10:04.482Z,994.23
2019-02-26T07:11:07.529Z,994.23
2019-02-26T07:12:05.283Z,994.34
2019-02-26T07:13:09.294Z,994.28
2019-02-26T07:14:08.052Z,994.03
2019-02-26T07:15:04.695Z,994.17
2019-02-26T07:16:05.583Z,994.22
2019-02-26T07:17:05.491Z,994.19
2019-02-26T07:18:09.465Z,994.31
2019-02-26T07:19:09.666Z,994.42
2019-02-26T07:20:04.984Z,994.39
2019-02-26T07:21:05.477Z,994.50
2019-02-26T07:22:10.952Z,994.42
2019-02-26T07:23:08.261Z,994.44
2019-02-26T07:24:04.901Z,994.41
2019-02-26T07:25:08.210Z,994.36
2019-02-26T07:26:05.076Z,994.36
2019-02-26T07:27:09.030Z,994.33
2019-02-26T07:28:05.603Z,994.36
2019-02-26T07:29:08.496Z,994.44
2019-02-26T07:30:04.612Z,994.49
2019-02-26T07:31:09.772Z,994.30
2019-02-26T07:32:04.531Z,994.44
2019-02-26T07:33:07.626Z,994.35
2019-02-26T07:34:05.453Z,994.43
2019-02-26T07:35:08.702Z,994.52
2019-02-26T07:36:04.976Z,994.49
2019-02-26T07:37:08.418Z,994.29
2019-02-26T07:38:04.593Z,994.40
2019-02-26T07:39:05.543Z,994.43
2019-02-26T07:40:08.207Z,994.49
2019-02-26T07:41:06.463Z,994.43
2019-02-26T07:42:14.502Z,994.46
2019-02-26T07:43:12.059Z,994.34
2019-02-26T07:44:15.305Z,994.45
2019-02-26T07:45:16.008Z,994.40
2019-02-26T07:46:05.038Z,994.31
2019-02-26T07:47:08.738Z,994.37
2019-02-26T07:48:05.545Z,994.34
2019-02-26T07:49:07.661Z,994.36
2019-02-26T07:50:09.641Z,994.42
2019-02-26T07:51:04.923Z,994.48
2019-02-26T07:52:08.718Z,994.42
2019-02-26T07:53:04.507Z,994.39
2019-02-26T07:54:04.789Z,994.33
2019-02-26T07:55:09.718Z,994.47
2019-02-26T07:56:08.652Z,994.50
2019-02-26T07:57:05.430Z,994.47
2019-02-26T07:58:09.094Z,994.56
2019-02-26T07:59:10.455Z,994.50
2019-02-26T08:00:05.080Z,994.64
2019-02-26T08:01:05.413Z,994.61
2019-02-26T08:02:08.292Z,994.58
2019-02-26T08:03:05.493Z,994.36
2019-02-26T08:04:08.461Z,994.44
2019-02-26T08:05:05.248Z,994.55
2019-02-26T08:06:09.946Z,994.61
2019-02-26T08:07:04.890Z,994.52
2019-02-26T08:08:05.047Z,994.64
2019-02-26T08:09:12.139Z,994.44
2019-02-26T08:10:09.959Z,994.58
2019-02-26T08:11:05.433Z,994.47
2019-02-26T08:12:09.319Z,994.52
2019-02-26T08:13:08.252Z,994.55
2019-02-26T08:14:04.919Z,994.63
2019-02-26T08:15:10.363Z,994.52
2019-02-26T08:16:05.508Z,994.43
2019-02-26T08:17:06.680Z,994.43
2019-02-26T08:18:05.725Z,994.49
2019-02-26T08:19:04.678Z,994.43
2019-02-26T08:20:10.471Z,994.43
2019-02-26T08:21:05.452Z,994.32
2019-02-26T08:22:05.108Z,994.46
2019-02-26T08:23:05.210Z,994.40
2019-02-26T08:24:04.763Z,994.40
2019-02-26T08:25:04.893Z,994.43
2019-02-26T08:26:05.142Z,994.34
2019-02-26T08:27:08.438Z,994.40
2019-02-26T08:28:04.955Z,994.34
2019-02-26T08:29:07.493Z,994.48
2019-02-26T08:30:07.199Z,994.46
2019-02-26T08:31:05.769Z,994.43
2019-02-26T08:32:05.526Z,994.31
2019-02-26T08:33:09.584Z,994.54
2019-02-26T08:34:04.842Z,994.45
2019-02-26T08:35:04.617Z,994.40
2019-02-26T08:36:04.782Z,994.45
2019-02-26T08:37:04.750Z,994.34
2019-02-26T08:38:06.655Z,994.42
2019-02-26T08:39:05.245Z,994.37
2019-02-26T08:40:04.638Z,994.37
2019-02-26T08:41:04.838Z,994.31
2019-02-26T08:42:04.846Z,994.34
2019-02-26T08:43:05.250Z,994.45
2019-02-26T08:44:05.408Z,994.45
2019-02-26T08:45:05.090Z,994.31
2019-02-26T08:46:09.195Z,994.51
2019-02-26T08:47:11.850Z,994.48
2019-02-26T08:48:05.205Z,994.39
2019-02-26T08:49:10.898Z,994.62
2019-02-26T08:50:09.965Z,994.53
2019-02-26T08:51:11.936Z,994.59
2019-02-26T08:52:05.371Z,994.56
2019-02-26T08:53:10.454Z,994.65
2019-02-26T08:54:04.741Z,994.59
2019-02-26T08:55:07.040Z,994.65
2019-02-26T08:56:05.660Z,994.67
2019-02-26T08:57:04.588Z,994.47
2019-02-26T08:58:04.640Z,994.69
2019-02-26T08:59:04.769Z,994.62
2019-02-26T09:00:04.872Z,994.59
2019-02-26T09:01:04.937Z,994.59
2019-02-26T09:02:04.523Z,994.53
2019-02-26T09:03:04.715Z,994.75
2019-02-26T09:04:05.072Z,994.64
2019-02-26T09:05:09.790Z,994.61
2019-02-26T09:06:15.566Z,994.74
2019-02-26T09:07:04.814Z,994.80
2019-02-26T09:08:08.375Z,994.80
2019-02-26T09:09:07.185Z,994.58
2019-02-26T09:10:09.801Z,994.69
2019-02-26T09:11:10.681Z,994.67
2019-02-26T09:12:05.178Z,994.67
2019-02-26T09:13:08.740Z,994.55
2019-02-26T09:14:09.021Z,994.58
2019-02-26T09:15:05.124Z,994.55
2019-02-26T09:16:08.002Z,994.61
2019-02-26T09:17:05.099Z,994.55
2019-02-26T09:18:05.309Z,994.52
2019-02-26T09:19:04.904Z,994.55
2019-02-26T09:20:12.094Z,994.46
2019-02-26T09:21:06.926Z,994.46
2019-02-26T09:22:05.289Z,994.74
2019-02-26T09:23:05.346Z,994.55
2019-02-26T09:24:08.025Z,994.60
2019-02-26T09:25:04.640Z,994.60
2019-02-26T09:26:07.342Z,994.66
2019-02-26T09:27:05.515Z,994.43
2019-02-26T09:28:05.071Z,994.52
2019-02-26T09:29:14.502Z,994.46
2019-02-26T09:30:08.942Z,994.37
2019-02-26T09:31:09.577Z,994.35
2019-02-26T09:32:09.187Z,994.34
2019-02-26T09:33:10.874Z,994.43
2019-02-26T09:34:04.615Z,994.40
2019-02-26T09:35:05.348Z,994.43
2019-02-26T09:36:04.545Z,994.32
2019-02-26T09:37:07.944Z,994.40
2019-02-26T09:38:04.742Z,994.37
2019-02-26T09:39:08.659Z,994.40
2019-02-26T09:40:05.282Z,994.34
2019-02-26T09:41:05.330Z,994.43
2019-02-26T09:42:09.002Z,994.37
2019-02-26T09:43:06.655Z,994.37
2019-02-26T09:44:09.578Z,994.43
2019-02-26T09:45:05.288Z,994.23
2019-02-26T09:46:09.675Z,994.40
2019-02-26T09:47:07.739Z,994.45
2019-02-26T09:48:05.521Z,994.54
2019-02-26T09:49:10.453Z,994.45
2019-02-26T09:50:04.618Z,994.42
2019-02-26T09:51:08.832Z,994.54
2019-02-26T09:52:07.039Z,994.42
2019-02-26T09:53:04.659Z,994.48
2019-02-26T09:54:04.750Z,994.51
2019-02-26T09:55:04.835Z,994.42
2019-02-26T09:56:05.372Z,994.36
2019-02-26T09:57:04.656Z,994.33
2019-02-26T09:58:04.655Z,994.42
2019-02-26T09:59:09.226Z,994.36
2019-02-26T10:00:05.348Z,994.42
2019-02-26T10:01:10.884Z,994.44
2019-02-26T10:02:06.438Z,994.47
2019-02-26T10:03:10.206Z,994.39
2019-02-26T10:04:05.760Z,994.41
2019-02-26T10:05:08.487Z,994.41
2019-02-26T10:06:05.409Z,994.41
2019-02-26T10:07:11.653Z,994.50
2019-02-26T10:08:05.783Z,994.44
2019-02-26T10:09:04.643Z,994.41
2019-02-26T10:10:09.115Z,994.27
2019-02-26T10:11:05.352Z,994.30
2019-02-26T10:12:09.840Z,994.41
2019-02-26T10:13:05.182Z,994.32
2019-02-26T10:14:07.869Z,994.49
2019-02-26T10:15:05.660Z,994.47
2019-02-26T10:16:08.891Z,994.44
2019-02-26T10:17:04.645Z,994.32
2019-02-26T10:18:09.277Z,994.61
2019-02-26T10:19:04.988Z,994.55
2019-02-26T10:20:09.466Z,994.49
2019-02-26T10:21:10.711Z,994.49
2019-02-26T10:22:13.292Z,994.49
2019-02-26T10:23:06.787Z,994.66
2019-02-26T10:24:05.338Z,994.63
2019-02-26T10:25:04.924Z,994.63
2019-02-26T10:26:07.735Z,994.57
2019-02-26T10:27:09.263Z,994.63
2019-02-26T10:28:11.548Z,994.54
2019-02-26T10:29:09.704Z,994.60
2019-02-26T10:30:10.508Z,994.73
2019-02-26T10:31:09.615Z,994.63
2019-02-26T10:32:05.350Z,994.51
2019-02-26T10:33:04.563Z,994.79
2019-02-26T10:34:12.348Z,994.60
2019-02-26T10:35:08.778Z,994.70
2019-02-26T10:36:07.906Z,994.60
2019-02-26T10:37:04.608Z,994.63
2019-02-26T10:38:11.386Z,994.57
2019-02-26T10:39:07.229Z,994.63
2019-02-26T10:40:09.506Z,994.65
2019-02-26T10:41:05.530Z,994.51
2019-02-26T10:42:04.546Z,994.57
2019-02-26T10:43:04.984Z,994.54
2019-02-26T10:44:05.525Z,994.45
2019-02-26T10:45:04.602Z,994.57
2019-02-26T10:46:05.383Z,994.48
2019-02-26T10:47:08.746Z,994.45
2019-02-26T10:48:05.221Z,994.45
2019-02-26T10:49:09.904Z,994.31
2019-02-26T10:50:05.404Z,994.54
2019-02-26T10:51:07.531Z,994.45
2019-02-26T10:52:05.241Z,994.51
2019-02-26T10:53:13.595Z,994.48
2019-02-26T10:54:12.275Z,994.48
2019-02-26T10:55:05.224Z,994.33
2019-02-26T10:56:04.632Z,994.36
2019-02-26T10:57:11.201Z,994.45
2019-02-26T10:58:12.951Z,994.42
2019-02-26T10:59:10.136Z,994.25
2019-02-26T11:00:10.834Z,994.19
2019-02-26T11:01:05.711Z,994.45
2019-02-26T11:02:05.292Z,994.30
2019-02-26T11:03:09.024Z,994.22
2019-02-26T11:04:05.018Z,994.27
2019-02-26T11:05:04.945Z,994.30
2019-02-26T11:06:09.897Z,994.24
2019-02-26T11:07:11.404Z,994.33
2019-02-26T11:08:09.677Z,994.41
2019-02-26T11:09:05.525Z,994.39
2019-02-26T11:10:04.752Z,994.33
2019-02-26T11:11:08.175Z,994.38
2019-02-26T11:12:08.760Z,994.38
2019-02-26T11:13:05.426Z,994.44
2019-02-26T11:14:10.417Z,994.50
2019-02-26T11:15:09.131Z,994.56
2019-02-26T11:16:05.042Z,994.50
2019-02-26T11:17:05.118Z,994.50
2019-02-26T11:18:05.907Z,994.53
2019-02-26T11:19:10.146Z,994.38
2019-02-26T11:20:07.678Z,994.41
2019-02-26T11:21:04.501Z,994.41
2019-02-26T11:22:04.795Z,994.44
2019-02-26T11:23:11.083Z,994.32
2019-02-26T11:24:08.621Z,994.35
2019-02-26T11:25:05.063Z,994.52
2019-02-26T11:26:10.284Z,994.61
2019-02-26T11:27:04.956Z,994.49
2019-02-26T11:28:09.443Z,994.52
2019-02-26T11:29:10.357Z,994.55
2019-02-26T11:30:05.431Z,994.55
2019-02-26T11:31:05.228Z,994.49
2019-02-26T11:32:10.239Z,994.49
2019-02-26T11:33:10.173Z,994.35
2019-02-26T11:34:11.202Z,994.44
2019-02-26T11:35:05.011Z,994.46
2019-02-26T11:36:10.218Z,994.44
2019-02-26T11:37:09.203Z,994.35
2019-02-26T11:38:04.904Z,994.38
2019-02-26T11:39:09.106Z,994.29
2019-02-26T11:40:05.900Z,994.38
2019-02-26T11:41:04.608Z,994.32
2019-02-26T11:42:04.752Z,994.12
2019-02-26T11:43:14.301Z,994.29
2019-02-26T11:44:12.425Z,994.21
2019-02-26T11:45:09.697Z,994.20
2019-02-26T11:46:08.773Z,994.23
2019-02-26T11:47:05.445Z,994.23
2019-02-26T11:48:08.651Z,994.20
2019-02-26T11:49:04.481Z,994.09
2019-02-26T11:50:09.230Z,994.15
2019-02-26T11:51:05.096Z,994.17
2019-02-26T11:52:05.227Z,994.06
2019-02-26T11:53:09.280Z,994.09
2019-02-26T11:54:08.168Z,994.12
2019-02-26T11:55:09.237Z,994.32
2019-02-26T11:56:04.724Z,994.09
2019-02-26T11:57:10.172Z,994.06
2019-02-26T11:58:15.819Z,994.08
2019-02-26T11:59:09.040Z,994.00
2019-02-26T12:00:09.165Z,993.88
2019-02-26T12:01:04.863Z,994.03
2019-02-26T12:02:06.840Z,993.88
2019-02-26T12:03:05.447Z,994.00
2019-02-26T12:04:08.415Z,993.91
2019-02-26T12:05:08.683Z,994.00
2019-02-26T12:06:07.406Z,993.97
2019-02-26T12:07:09.878Z,994.05
2019-02-26T12:08:04.532Z,993.94
2019-02-26T12:09:10.371Z,994.05
2019-02-26T12:10:12.120Z,994.05
2019-02-26T12:11:11.203Z,994.08
2019-02-26T12:12:09.129Z,994.14
2019-02-26T12:13:04.629Z,994.02
2019-02-26T12:14:05.184Z,993.99
2019-02-26T12:15:09.961Z,994.08
2019-02-26T12:16:04.849Z,993.91
2019-02-26T12:17:04.947Z,993.99
2019-02-26T12:18:05.057Z,993.99
2019-02-26T12:19:10.541Z,993.88
2019-02-26T12:20:05.122Z,993.99
2019-02-26T12:21:09.861Z,993.93
2019-02-26T12:22:06.410Z,993.88
2019-02-26T12:23:07.761Z,993.93
2019-02-26T12:24:09.062Z,993.93
2019-02-26T12:25:11.028Z,993.91
2019-02-26T12:26:04.777Z,993.88
2019-02-26T12:27:07.086Z,993.76
2019-02-26T12:28:10.404Z,993.79